Station info - map view · info · telemetry · weather · raw · status · beacons · messages · bulletins · browse · moving · my account
Callsign, ship name or locator: Clear       
It is possible to search using wildcards (*?) after a prefix. Example: OH*
APRS station K2BRT-9 - show graphs
Map loading...
Mic-E message: En route
Location: 41°29.95' N 74°04.27' W - locator FN21XL19LT - show map - static map
2.5 miles South bearing 181° from Gardnertown, Orange County, New York, United States [?]
3.1 miles Southeast bearing 154° from Orange Lake, Orange County, New York, United States
54.3 miles North bearing 356° from New York City, New York, United States
59.0 miles North bearing 354° from Brooklyn, Kings County, New York, United States
Last position: 2018-04-01 18:11:07 EDT (22d 20h20m ago)
2018-04-01 18:11:07 EDT local time at Gardnertown, United States [?]
Altitude: 341 ft
Course: 196°
Speed: 48 MPH
Device: Yaesu: FTM-100D (rig)
Last path: K2BRT-9>TQ2Y9U via WIDE1-1,WIDE2-1,qAR,K2ATY-10 (good)
Positions stored: 13492
Stations near current position of K2BRT-9 - show more
callsign distance last heard - EDT      callsign distance last heard - EDT
KC2BNX-91.4 miles 331°2018-04-15 08:15:28 DW18432.4 miles 106°2018-04-24 14:23:08
DW42362.5 miles 139°2018-04-24 14:31:06 KC2PJH-92.5 miles 326°2018-04-22 16:44:37
N2JAM-i2.7 miles 207°2018-04-22 18:41:48 146.430NY2.9 miles 26°2018-04-24 14:06:13
449.475NY2.9 miles 26°2018-04-24 14:09:13 St.LukesN3.0 miles 84°2018-04-24 14:28:36
DW07563.0 miles 356°2018-04-24 14:26:04 WM2C B3.1 miles 185°2018-04-20 09:00:34
WM2C-B3.1 miles 185°2018-04-20 09:00:44 WM2C3.1 miles 185°2018-04-20 09:10:11
WM2C C3.1 miles 185°2018-04-04 13:11:07 WM2C-C3.1 miles 185°2018-04-04 13:11:17
WA2GZW3.4 miles 46°2018-04-04 18:07:31 K2ATY-13.9 miles 352°2018-03-27 11:35:50
K2ATY-104.0 miles 352°2018-04-24 14:19:51 WM2C-94.6 miles 149°2018-04-19 19:43:08
St.LukesC4.7 miles 161°2018-04-24 14:30:40 OCARC4.7 miles 149°2018-04-24 13:22:12
Stations which heard K2BRT-9 directly on radio –
callsign pkts first heard - EDT last heard longest (tx => rx) longest at - EDT
W3UD-3 8 2018-04-01 15:15:54 2018-04-01 15:42:40 FM29HQ > FM29CQ 19.3 miles 269° 2018-04-01 15:42:40
KD4PBS-3 1 2018-04-01 08:15:21 2018-04-01 08:15:21 FM05TL > FM05RQ 16.7 miles 319° 2018-04-01 08:15:21
WB2SNN-15 1 2018-04-01 16:42:52 2018-04-01 16:42:52 FN20TL > FN20TK 2.8 miles 140° 2018-04-01 16:42:52
N3KTX-7 2 2018-04-01 14:00:57 2018-04-01 14:39:15 FM19VL > FM18XW 39.8 miles 167° 2018-04-01 14:39:15
N2MH-15 4 2018-04-01 17:23:23 2018-04-01 17:36:38 FN20TX > FN20UT 12.4 miles 159° 2018-04-01 17:36:38
WB2ZII 1 2018-04-01 17:42:33 2018-04-01 17:42:33 FN21VC > FN31CB 19.0 miles 94° 2018-04-01 17:42:33
N3XJT-1 11 2018-04-01 14:59:22 2018-04-01 15:45:04 FM29HR > FM29AN 34.8 miles 254° 2018-04-01 15:45:04
KG4NVB 4 2018-04-01 09:16:15 2018-04-01 09:18:35 FM16EK > FM16EL 2.9 miles 328° 2018-04-01 09:16:15
KG4URP-1 6 2018-04-01 12:48:15 2018-04-01 12:55:54 FM18JS > FM18IQ 7.1 miles 234° 2018-04-01 12:55:54
W4RAT-2 7 2018-04-01 10:58:38 2018-04-01 11:19:46 FM17GP > FM17FU 15.0 miles 340° 2018-04-01 10:58:38
W4RAT-3 3 2018-04-01 10:38:36 2018-04-01 10:53:59 FM17HI > FM17GM 12.1 miles 337° 2018-04-01 10:38:36
W4RAT-5 15 2018-04-01 09:53:12 2018-04-01 10:41:32 FM17HJ > FM17IE 15.0 miles 172° 2018-04-01 10:41:32
K3TU 1 2018-04-01 16:04:17 2018-04-01 16:04:17 FM29MV > FM29KX 10.5 miles 301° 2018-04-01 16:04:17
W4LBT-9 10 2018-04-01 07:31:37 2018-04-01 08:29:23 FM05WP > FM04LV 75.9 miles 227° 2018-04-01 08:29:23
NV4FM-5 2 2018-04-01 13:06:44 2018-04-01 13:07:54 FM18MT > FM18JV 14.3 miles 299° 2018-04-01 13:07:54
W4RAT-1 15 2018-04-01 10:09:15 2018-04-01 10:59:48 FM17IE > FM17EM 27.3 miles 327° 2018-04-01 10:10:21
KA2RLM-15 4 2018-04-01 16:34:38 2018-04-01 16:46:34 FN20SH > FN20RJ 7.4 miles 317° 2018-04-01 16:34:38
K2GE-13 5 2018-04-01 16:36:59 2018-04-01 16:48:46 FN20SI > FN20UK 10.5 miles 52° 2018-04-01 16:36:59
K3GJ-13 13 2018-04-01 13:09:08 2018-04-01 13:44:30 FM19ND > FM18NU 20.7 miles 182° 2018-04-01 13:44:30
N3FCX 1 2018-04-01 15:51:05 2018-04-01 15:51:05 FM29JS > FM29IV 9.4 miles 337° 2018-04-01 15:51:05
KC2QVT-15 3 2018-04-01 16:20:22 2018-04-01 16:28:44 FN20RF > FM29QX 18.0 miles 194° 2018-04-01 16:28:44
W4IY 3 2018-04-01 12:40:16 2018-04-01 12:47:37 FM18HM > FM18IP 10.6 miles 30° 2018-04-01 12:40:16
WB2ZII-15 2 2018-04-01 17:57:06 2018-04-01 18:07:05 FN21XM > FN31CG 20.9 miles 138° 2018-04-01 18:07:05
KV3B-1 2 2018-04-01 13:00:12 2018-04-01 13:30:36 FM18KT > FM19JE 27.6 miles 350° 2018-04-01 13:00:12
KF4EBG-1 7 2018-04-01 09:13:57 2018-04-01 09:30:17 FM16FQ > FM16EM 13.8 miles 195° 2018-04-01 09:30:17
N3TJJ-11 2 2018-04-01 14:57:32 2018-04-01 14:58:08 FM19WN > FM19UV 22.5 miles 341° 2018-04-01 14:57:32
W4VA-10 1 2018-04-01 12:58:22 2018-04-01 12:58:22 FM18JT > FM18BR 35.9 miles 264° 2018-04-01 12:58:22
AE4ML-1 5 2018-04-01 12:11:19 2018-04-01 12:28:32 FM18GF > FM18GH 4.2 miles 32° 2018-04-01 12:11:19
N2KI-10 1 2018-04-01 18:08:16 2018-04-01 18:08:16 FN21XM > FN21VK 7.6 miles 224° 2018-04-01 18:08:16
NR3I 20 2018-04-01 15:19:58 2018-04-01 15:41:25 FM29GQ > FM29ER 10.6 miles 288° 2018-04-01 15:41:25
CLAYTN 4 2018-04-01 15:49:48 2018-04-01 16:04:19 FM29LV > FM29KQ 15.3 miles 200° 2018-04-01 16:03:06
N3XKU-7 2 2018-04-01 16:22:14 2018-04-01 16:24:38 FN20QE > FN20NE 11.0 miles 269° 2018-04-01 16:24:38
KB2EAR-1 10 2018-04-01 16:41:41 2018-04-01 17:13:48 FN20SK > FN20RO 13.8 miles 327° 2018-04-01 16:41:41
KE3XE 6 2018-04-01 12:11:54 2018-04-01 12:20:22 FM18GF > FM18FG 3.4 miles 315° 2018-04-01 12:16:04
NJ2RC 3 2018-04-01 17:31:47 2018-04-01 17:34:08 FN21UA > FN20UV 9.4 miles 178° 2018-04-01 17:34:08
K2ATY-10 2 2018-04-01 18:07:40 2018-04-01 18:11:07 FN21XL > FN21XN 4.0 miles 352° 2018-04-01 18:11:07
BRISTL 2 2018-04-01 16:16:36 2018-04-01 16:17:58 FN20OB > FN20NC 5.8 miles 285° 2018-04-01 16:17:58
W2SRH 1 2018-04-01 16:27:34 2018-04-01 16:27:34 FN20RE > FN20OE 10.8 miles 270° 2018-04-01 16:27:34
K3ARS-2 1 2018-04-01 14:32:07 2018-04-01 14:32:07 FM19UK > FM19VD 22.4 miles 169° 2018-04-01 14:32:07
MATWAN 2 2018-04-01 16:44:02 2018-04-01 16:51:14 FN20TM > FN20VJ 11.9 miles 143° 2018-04-01 16:51:14
KC2OUR-4 2 2018-04-01 17:55:22 2018-04-01 17:56:32 FN21WH > FN21TJ 13.9 miles 295° 2018-04-01 17:56:32
K3ARS-3 7 2018-04-01 14:10:55 2018-04-01 15:01:46 FM19XO > FM19VF 26.7 miles 193° 2018-04-01 15:01:46
KK4NDE-3 7 2018-04-01 11:31:41 2018-04-01 12:19:04 FM18FF > FM18GF 1.1 miles 79° 2018-04-01 12:19:04
K3PDR-3 8 2018-04-01 16:05:02 2018-04-01 16:24:03 FN20QD > FN20JB 28.8 miles 259° 2018-04-01 16:24:03
MDAAOC-1 1 2018-04-01 14:03:51 2018-04-01 14:03:51 FM19RG > FM19QD 8.0 miles 206° 2018-04-01 14:03:51
W2MER 1 2018-04-01 16:40:29 2018-04-01 16:40:29 FN20SK > FN20PG 16.4 miles 231° 2018-04-01 16:40:29
W4KEL-12 21 2018-04-01 11:19:06 2018-04-01 13:14:04 FM18NU > FM08QH 101.0 miles 249° 2018-04-01 13:14:04
K3HKI-1 1 2018-04-01 13:15:49 2018-04-01 13:15:49 FM18NU > FM18QJ 33.1 miles 157° 2018-04-01 13:15:49
N2DQG-1 1 2018-04-01 15:52:16 2018-04-01 15:52:16 FM29JS > FM29JT 0.7 miles 48° 2018-04-01 15:52:16

Only position packets which were originated by the station are shown here. The range statistics show some extra long hops, because some digipeaters do not correctly add themselves to the digipeater path. Please check the raw packets.
About this site
This page shows real-time information collected from the Automatic Position Reporting System Internet network (APRS-IS). APRS is used by amateur (ham) radio operators to transmit real-time position information, weather data, telemetry and messages over the radio. A vehicle equipped with a GPS receiver, a VHF transmitter or HF transceiver and a small computer device called a tracker transmits it's location, speed and course in a small data packet, which is then received by a nearby iGate receiving site which forwards the packet on the Internet. Systems connected to the Internet can send information on the APRS-IS without a radio transmitter, or collect and display information transmitted anywhere in the world.
FAQ · Blog · Discussion group · Linking to aprs.fi · AIS sites · Service status · Database statistics · Advertising on aprs.fi · Technical details · API · Change log · Planned changes · Credits and thanks · Terms Of Service · iPhone/iPad APRS